createdAt,value
2016-09-24T00:00:08.284Z,0
2016-09-24T00:01:08.307Z,0
2016-09-24T00:02:08.329Z,0
2016-09-24T00:03:08.356Z,0
2016-09-24T00:04:08.368Z,0
2016-09-24T00:05:08.396Z,0
2016-09-24T00:06:08.410Z,0
2016-09-24T00:07:08.448Z,0
2016-09-24T00:08:08.458Z,0
2016-09-24T00:09:08.492Z,0
2016-09-24T00:10:08.506Z,0
2016-09-24T00:11:08.524Z,0
2016-09-24T00:12:08.774Z,0
2016-09-24T00:13:08.658Z,0
2016-09-24T00:14:08.603Z,0
2016-09-24T00:15:08.622Z,0
2016-09-24T00:16:08.656Z,0
2016-09-24T00:17:08.662Z,0
2016-09-24T00:18:08.684Z,0
2016-09-24T00:19:08.696Z,0
2016-09-24T00:20:09.068Z,0
2016-09-24T00:21:08.739Z,0
2016-09-24T00:22:08.777Z,0
2016-09-24T00:23:08.792Z,0
2016-09-24T00:24:08.810Z,0
2016-09-24T00:25:08.849Z,0
2016-09-24T00:26:08.866Z,0
2016-09-24T00:27:08.875Z,0
2016-09-24T00:28:08.902Z,0
2016-09-24T00:29:11.965Z,0
2016-09-24T00:30:08.945Z,0
2016-09-24T00:31:08.975Z,0
2016-09-24T00:32:09.002Z,0
2016-09-24T00:33:09.033Z,0
2016-09-24T00:34:09.052Z,0
2016-09-24T00:35:09.080Z,0
2016-09-24T00:36:09.129Z,0
2016-09-24T00:37:09.103Z,0
2016-09-24T00:38:09.132Z,0
2016-09-24T00:39:09.134Z,0
2016-09-24T00:40:09.175Z,0
2016-09-24T00:41:09.191Z,0
2016-09-24T00:42:09.217Z,0
2016-09-24T00:43:09.227Z,0
2016-09-24T00:44:09.252Z,0
2016-09-24T00:45:09.262Z,0
2016-09-24T00:46:09.310Z,0
2016-09-24T00:47:09.318Z,0
2016-09-24T00:48:09.346Z,0
2016-09-24T00:49:09.376Z,0
2016-09-24T00:50:09.383Z,0
2016-09-24T00:51:09.399Z,0
2016-09-24T00:52:09.449Z,0
2016-09-24T00:53:09.448Z,0
2016-09-24T00:54:09.467Z,0
2016-09-24T00:55:09.491Z,0
2016-09-24T00:56:09.527Z,0
2016-09-24T00:57:09.524Z,0
2016-09-24T00:58:09.565Z,0
2016-09-24T00:59:09.566Z,0
2016-09-24T01:00:09.617Z,0
2016-09-24T01:01:09.621Z,0
2016-09-24T01:02:09.633Z,0
2016-09-24T01:03:09.676Z,0
2016-09-24T01:04:09.684Z,0
2016-09-24T01:05:09.713Z,0
2016-09-24T01:06:09.739Z,0
2016-09-24T01:07:09.748Z,0
2016-09-24T01:08:09.784Z,0
2016-09-24T01:09:09.803Z,0
2016-09-24T01:10:09.828Z,0
2016-09-24T01:11:09.839Z,0
2016-09-24T01:12:09.862Z,0
2016-09-24T01:13:10.250Z,0
2016-09-24T01:14:09.997Z,0
2016-09-24T01:15:10.003Z,0
2016-09-24T01:16:10.005Z,0
2016-09-24T01:17:10.016Z,0
2016-09-24T01:18:10.022Z,0
2016-09-24T01:19:10.034Z,0
2016-09-24T01:20:10.036Z,0
2016-09-24T01:21:10.173Z,0
2016-09-24T01:22:10.185Z,0
2016-09-24T01:23:10.217Z,0
2016-09-24T01:24:10.428Z,0
2016-09-24T01:25:10.228Z,0
2016-09-24T01:26:10.238Z,0
2016-09-24T01:27:10.258Z,0
2016-09-24T01:28:10.295Z,0
2016-09-24T01:29:10.292Z,0
2016-09-24T01:30:10.300Z,0
2016-09-24T01:31:10.309Z,0
2016-09-24T01:32:10.318Z,0
2016-09-24T01:33:10.329Z,0
2016-09-24T01:34:10.339Z,0
2016-09-24T01:35:10.359Z,0
2016-09-24T01:36:10.388Z,0
2016-09-24T01:37:10.404Z,0
2016-09-24T01:38:10.420Z,0
2016-09-24T01:39:10.440Z,0
2016-09-24T01:40:10.458Z,0
2016-09-24T01:41:10.478Z,0
2016-09-24T01:42:10.502Z,0
2016-09-24T01:43:10.537Z,0
2016-09-24T01:44:10.569Z,0
2016-09-24T01:45:10.573Z,0
2016-09-24T01:46:10.603Z,0
2016-09-24T01:47:10.619Z,0
2016-09-24T01:48:10.650Z,0
2016-09-24T01:49:10.643Z,0
2016-09-24T01:50:10.676Z,0
2016-09-24T01:51:10.706Z,0
2016-09-24T01:52:10.722Z,0
2016-09-24T01:53:10.741Z,0
2016-09-24T01:54:10.773Z,0
2016-09-24T01:55:10.784Z,0
2016-09-24T01:56:10.809Z,0
2016-09-24T01:57:10.838Z,0
2016-09-24T01:58:10.845Z,0
2016-09-24T01:59:10.875Z,0
2016-09-24T02:00:10.881Z,0
2016-09-24T02:01:11.083Z,0
2016-09-24T02:02:10.932Z,0
2016-09-24T02:03:10.945Z,0
2016-09-24T02:04:10.981Z,0
2016-09-24T02:05:10.990Z,0
2016-09-24T02:06:11.070Z,0
2016-09-24T02:07:11.042Z,0
2016-09-24T02:08:11.065Z,0
2016-09-24T02:09:11.093Z,0
2016-09-24T02:10:11.118Z,0
2016-09-24T02:11:11.132Z,0
2016-09-24T02:12:11.166Z,0
2016-09-24T02:13:11.163Z,0
2016-09-24T02:14:11.183Z,0
2016-09-24T02:15:11.209Z,0
2016-09-24T02:16:11.228Z,0
2016-09-24T02:17:11.259Z,0
2016-09-24T02:18:11.270Z,0
2016-09-24T02:19:11.283Z,0
2016-09-24T02:20:11.324Z,0
2016-09-24T02:21:11.353Z,0
2016-09-24T02:22:11.365Z,0
2016-09-24T02:23:11.378Z,0
2016-09-24T02:24:11.401Z,0
2016-09-24T02:25:11.415Z,0
2016-09-24T02:26:11.442Z,0
2016-09-24T02:27:11.460Z,0
2016-09-24T02:28:11.485Z,0
2016-09-24T02:29:11.510Z,0
2016-09-24T02:30:11.531Z,0
2016-09-24T02:31:11.558Z,0
2016-09-24T02:32:11.574Z,0
2016-09-24T02:33:11.594Z,0
2016-09-24T02:34:11.611Z,0
2016-09-24T02:35:11.629Z,0
2016-09-24T02:36:11.652Z,0
2016-09-24T02:37:11.680Z,0
2016-09-24T02:38:11.706Z,0
2016-09-24T02:39:11.712Z,0
2016-09-24T02:40:11.735Z,0
2016-09-24T02:41:11.971Z,0
2016-09-24T02:42:11.775Z,0
2016-09-24T02:43:11.789Z,0
2016-09-24T02:44:11.825Z,0
2016-09-24T02:45:11.967Z,0
2016-09-24T02:46:11.979Z,0
2016-09-24T02:47:12.296Z,0
2016-09-24T02:48:12.136Z,0
2016-09-24T02:49:12.015Z,0
2016-09-24T02:50:12.165Z,0
2016-09-24T02:51:12.172Z,0
2016-09-24T02:52:12.191Z,0
2016-09-24T02:53:12.195Z,0
2016-09-24T02:54:12.210Z,0
2016-09-24T02:55:12.207Z,0
2016-09-24T02:56:12.253Z,0
2016-09-24T02:57:12.265Z,0
2016-09-24T02:58:12.273Z,0
2016-09-24T02:59:12.268Z,0
2016-09-24T03:00:12.278Z,0
2016-09-24T03:01:12.289Z,0
2016-09-24T03:02:12.295Z,0
2016-09-24T03:03:12.304Z,0
2016-09-24T03:04:12.317Z,0
2016-09-24T03:05:12.356Z,0
2016-09-24T03:06:12.361Z,0
2016-09-24T03:07:12.374Z,0
2016-09-24T03:08:12.413Z,0
2016-09-24T03:09:12.345Z,0
2016-09-24T03:10:12.360Z,0
2016-09-24T03:11:12.382Z,0
2016-09-24T03:12:12.411Z,0
2016-09-24T03:13:12.427Z,0
2016-09-24T03:14:12.463Z,0
2016-09-24T03:15:12.464Z,0
2016-09-24T03:16:12.493Z,0
2016-09-24T03:17:12.518Z,0
2016-09-24T03:18:12.528Z,0
2016-09-24T03:19:12.550Z,0
2016-09-24T03:20:12.578Z,0
2016-09-24T03:21:12.592Z,0
2016-09-24T03:22:12.610Z,0
2016-09-24T03:23:12.636Z,0
2016-09-24T03:24:12.669Z,0
2016-09-24T03:25:12.673Z,0
2016-09-24T03:26:12.697Z,0
2016-09-24T03:27:12.721Z,0
2016-09-24T03:28:12.758Z,0
2016-09-24T03:29:12.768Z,0
2016-09-24T03:30:12.784Z,0
2016-09-24T03:31:12.817Z,0
2016-09-24T03:32:12.826Z,0
2016-09-24T03:33:12.846Z,0
2016-09-24T03:34:12.862Z,0
2016-09-24T03:35:12.898Z,0
2016-09-24T03:36:12.906Z,0
2016-09-24T03:37:12.932Z,0
2016-09-24T03:38:13.271Z,0
2016-09-24T03:39:12.971Z,0
2016-09-24T03:40:12.987Z,0
2016-09-24T03:41:13.026Z,0
2016-09-24T03:42:13.021Z,0
2016-09-24T03:43:13.054Z,0
2016-09-24T03:44:13.395Z,0
2016-09-24T03:45:13.105Z,0
2016-09-24T03:46:13.122Z,0
2016-09-24T03:47:13.445Z,0
2016-09-24T03:48:13.145Z,0
2016-09-24T03:49:13.184Z,0
2016-09-24T03:50:13.200Z,0
2016-09-24T03:51:13.222Z,0
2016-09-24T03:52:13.247Z,0
2016-09-24T03:53:13.268Z,0
2016-09-24T03:54:13.281Z,0
2016-09-24T03:55:13.302Z,0
2016-09-24T03:56:13.320Z,0
2016-09-24T03:57:13.341Z,0
2016-09-24T03:58:13.361Z,0
2016-09-24T03:59:13.390Z,0
2016-09-24T04:00:13.390Z,0
2016-09-24T04:01:13.420Z,0
2016-09-24T04:02:13.437Z,0
2016-09-24T04:03:13.460Z,0
2016-09-24T04:04:13.496Z,0
2016-09-24T04:05:13.845Z,0
2016-09-24T04:06:13.521Z,0
2016-09-24T04:07:13.550Z,0
2016-09-24T04:08:13.568Z,0
2016-09-24T04:09:13.603Z,0
2016-09-24T04:10:13.609Z,0
2016-09-24T04:11:13.633Z,0
2016-09-24T04:12:13.666Z,0
2016-09-24T04:13:13.684Z,0
2016-09-24T04:14:13.702Z,0
2016-09-24T04:15:13.719Z,0
2016-09-24T04:16:13.743Z,0
2016-09-24T04:17:14.065Z,0
2016-09-24T04:18:13.765Z,0
2016-09-24T04:19:13.801Z,0
2016-09-24T04:20:13.812Z,0
2016-09-24T04:21:13.825Z,0
2016-09-24T04:22:13.863Z,0
2016-09-24T04:23:13.875Z,0
2016-09-24T04:24:14.023Z,0
2016-09-24T04:25:13.998Z,0
2016-09-24T04:26:14.167Z,0
2016-09-24T04:27:14.181Z,0
2016-09-24T04:28:14.186Z,0
2016-09-24T04:29:14.223Z,0
2016-09-24T04:30:14.188Z,0
2016-09-24T04:31:14.342Z,0
2016-09-24T04:32:14.213Z,0
2016-09-24T04:33:14.218Z,0
2016-09-24T04:34:14.232Z,0
2016-09-24T04:35:14.234Z,0
2016-09-24T04:36:14.369Z,0
2016-09-24T04:37:14.289Z,0
2016-09-24T04:38:14.295Z,0
2016-09-24T04:39:14.306Z,0
2016-09-24T04:40:14.309Z,0
2016-09-24T04:41:14.371Z,0
2016-09-24T04:42:14.364Z,0
2016-09-24T04:43:14.365Z,4
2016-09-24T04:44:14.384Z,4
2016-09-24T04:45:14.420Z,4
2016-09-24T04:46:14.449Z,4
2016-09-24T04:47:14.424Z,4
2016-09-24T04:48:14.442Z,4
2016-09-24T04:49:14.428Z,4
2016-09-24T04:50:14.433Z,8
2016-09-24T04:51:14.445Z,4
2016-09-24T04:52:14.484Z,8
2016-09-24T04:53:14.491Z,8
2016-09-24T04:54:14.502Z,8
2016-09-24T04:55:14.532Z,8
2016-09-24T04:56:14.548Z,12
2016-09-24T04:57:14.590Z,12
2016-09-24T04:58:14.590Z,16
2016-09-24T04:59:14.605Z,16
2016-09-24T05:00:14.641Z,16
2016-09-24T05:01:14.641Z,20
2016-09-24T05:02:14.673Z,20
2016-09-24T05:03:14.694Z,24
2016-09-24T05:04:14.707Z,24
2016-09-24T05:05:14.739Z,28
2016-09-24T05:06:14.880Z,28
2016-09-24T05:07:14.774Z,32
2016-09-24T05:08:14.844Z,32
2016-09-24T05:09:14.852Z,36
2016-09-24T05:10:14.829Z,36
2016-09-24T05:11:14.859Z,40
2016-09-24T05:12:14.878Z,44
2016-09-24T05:13:14.899Z,48
2016-09-24T05:14:14.917Z,52
2016-09-24T05:15:14.939Z,56
2016-09-24T05:16:14.961Z,60
2016-09-24T05:17:14.968Z,64
2016-09-24T05:18:15.000Z,68
2016-09-24T05:19:15.028Z,68
2016-09-24T05:20:15.150Z,76
2016-09-24T05:21:15.061Z,76
2016-09-24T05:22:15.076Z,76
2016-09-24T05:23:15.086Z,80
2016-09-24T05:24:15.109Z,84
2016-09-24T05:25:15.144Z,84
2016-09-24T05:26:15.203Z,84
2016-09-24T05:27:15.171Z,88
2016-09-24T05:28:15.201Z,96
2016-09-24T05:29:15.228Z,100
2016-09-24T05:30:15.248Z,104
2016-09-24T05:31:15.251Z,108
2016-09-24T05:32:15.281Z,112
2016-09-24T05:33:15.306Z,116
2016-09-24T05:34:15.320Z,124
2016-09-24T05:35:15.346Z,128
2016-09-24T05:36:15.360Z,132
2016-09-24T05:37:15.410Z,136
2016-09-24T05:38:15.403Z,140
2016-09-24T05:39:15.425Z,148
2016-09-24T05:40:15.442Z,152
2016-09-24T05:41:15.463Z,156
2016-09-24T05:42:15.478Z,156
2016-09-24T05:43:15.506Z,164
2016-09-24T05:44:15.523Z,168
2016-09-24T05:45:15.549Z,180
2016-09-24T05:46:15.575Z,196
2016-09-24T05:47:15.576Z,216
2016-09-24T05:48:15.612Z,236
2016-09-24T05:49:15.630Z,244
2016-09-24T05:50:15.648Z,252
2016-09-24T05:51:15.667Z,248
2016-09-24T05:52:15.685Z,240
2016-09-24T05:53:15.708Z,232
2016-09-24T05:54:15.722Z,224
2016-09-24T05:55:15.744Z,216
2016-09-24T05:56:15.757Z,216
2016-09-24T05:57:15.786Z,212
2016-09-24T05:58:15.805Z,216
2016-09-24T05:59:15.826Z,220
2016-09-24T06:00:15.838Z,220
2016-09-24T06:01:15.860Z,228
2016-09-24T06:02:15.887Z,236
2016-09-24T06:03:16.011Z,244
2016-09-24T06:04:16.038Z,248
2016-09-24T06:05:16.037Z,256
2016-09-24T06:06:16.183Z,264
2016-09-24T06:07:16.185Z,272
2016-09-24T06:08:16.013Z,280
2016-09-24T06:09:16.026Z,284
2016-09-24T06:10:16.047Z,284
2016-09-24T06:11:16.069Z,284
2016-09-24T06:12:16.086Z,292
2016-09-24T06:13:16.108Z,296
2016-09-24T06:14:16.139Z,292
2016-09-24T06:15:16.158Z,284
2016-09-24T06:16:16.176Z,284
2016-09-24T06:17:16.190Z,284
2016-09-24T06:18:16.214Z,288
2016-09-24T06:19:16.221Z,292
2016-09-24T06:20:16.246Z,292
2016-09-24T06:21:16.294Z,300
2016-09-24T06:22:16.291Z,304
2016-09-24T06:23:16.312Z,304
2016-09-24T06:24:16.340Z,308
2016-09-24T06:25:16.346Z,320
2016-09-24T06:26:16.378Z,324
2016-09-24T06:27:16.395Z,336
2016-09-24T06:28:16.415Z,336
2016-09-24T06:29:16.437Z,344
2016-09-24T06:30:16.445Z,348
2016-09-24T06:31:16.526Z,352
2016-09-24T06:32:16.489Z,356
2016-09-24T06:33:16.519Z,356
2016-09-24T06:34:16.549Z,356
2016-09-24T06:35:16.558Z,356
2016-09-24T06:36:16.583Z,356
2016-09-24T06:37:16.596Z,352
2016-09-24T06:38:16.609Z,360
2016-09-24T06:39:16.633Z,364
2016-09-24T06:40:16.663Z,372
2016-09-24T06:41:16.683Z,376
2016-09-24T06:42:16.702Z,380
2016-09-24T06:43:17.030Z,380
2016-09-24T06:44:16.729Z,376
2016-09-24T06:45:16.755Z,380
2016-09-24T06:46:16.760Z,388
2016-09-24T06:47:16.788Z,392
2016-09-24T06:48:16.811Z,392
2016-09-24T06:49:16.837Z,392
2016-09-24T06:50:17.282Z,396
2016-09-24T06:51:17.304Z,396
2016-09-24T06:52:16.989Z,396
2016-09-24T06:53:17.002Z,396
2016-09-24T06:54:17.118Z,400
2016-09-24T06:55:17.126Z,404
2016-09-24T06:56:17.148Z,408
2016-09-24T06:57:17.146Z,412
2016-09-24T06:58:17.151Z,416
2016-09-24T06:59:17.169Z,416
2016-09-24T07:00:17.168Z,424
2016-09-24T07:01:17.176Z,428
2016-09-24T07:02:17.202Z,428
2016-09-24T07:03:17.324Z,428
2016-09-24T07:04:17.327Z,424
2016-09-24T07:05:17.348Z,424
2016-09-24T07:06:17.247Z,416
2016-09-24T07:07:17.302Z,440
2016-09-24T07:08:17.317Z,448
2016-09-24T07:09:17.313Z,452
2016-09-24T07:10:17.349Z,464
2016-09-24T07:11:17.353Z,468
2016-09-24T07:12:17.351Z,472
2016-09-24T07:13:17.364Z,472
2016-09-24T07:14:17.377Z,472
2016-09-24T07:15:17.391Z,472
2016-09-24T07:16:17.383Z,468
2016-09-24T07:17:17.419Z,472
2016-09-24T07:18:17.420Z,472
2016-09-24T07:19:17.455Z,468
2016-09-24T07:20:17.468Z,468
2016-09-24T07:21:17.493Z,468
2016-09-24T07:22:17.498Z,476
2016-09-24T07:23:17.524Z,488
2016-09-24T07:24:17.553Z,504
2016-09-24T07:25:17.573Z,520
2016-09-24T07:26:17.587Z,536
2016-09-24T07:27:17.617Z,544
2016-09-24T07:28:17.633Z,536
2016-09-24T07:29:17.647Z,548
2016-09-24T07:30:17.670Z,560
2016-09-24T07:31:17.698Z,584
2016-09-24T07:32:17.727Z,592
2016-09-24T07:33:17.738Z,584
2016-09-24T07:34:17.752Z,584
2016-09-24T07:35:17.773Z,588
2016-09-24T07:36:17.793Z,596
2016-09-24T07:37:17.825Z,600
2016-09-24T07:38:17.827Z,608
2016-09-24T07:39:17.854Z,632
2016-09-24T07:40:17.871Z,632
2016-09-24T07:41:17.888Z,640
2016-09-24T07:42:18.238Z,676
2016-09-24T07:43:17.947Z,704
2016-09-24T07:44:17.977Z,668
2016-09-24T07:45:17.984Z,644
2016-09-24T07:46:18.005Z,632
2016-09-24T07:47:18.014Z,616
2016-09-24T07:48:18.060Z,596
2016-09-24T07:49:18.070Z,576
2016-09-24T07:50:18.082Z,564
2016-09-24T07:51:18.112Z,556
2016-09-24T07:52:18.133Z,560
2016-09-24T07:53:18.147Z,576
2016-09-24T07:54:18.155Z,592
2016-09-24T07:55:18.183Z,604
2016-09-24T07:56:18.202Z,592
2016-09-24T07:57:18.534Z,588
2016-09-24T07:58:18.254Z,576
2016-09-24T07:59:18.282Z,568
2016-09-24T08:00:18.289Z,584
2016-09-24T08:01:18.317Z,612
2016-09-24T08:02:18.342Z,632
2016-09-24T08:03:18.360Z,672
2016-09-24T08:04:18.376Z,724
2016-09-24T08:05:18.404Z,672
2016-09-24T08:06:18.426Z,648
2016-09-24T08:07:18.440Z,680
2016-09-24T08:08:18.473Z,788
2016-09-24T08:09:18.475Z,940
2016-09-24T08:10:18.505Z,832
2016-09-24T08:11:18.523Z,712
2016-09-24T08:12:18.554Z,708
2016-09-24T08:13:18.575Z,732
2016-09-24T08:14:18.588Z,716
2016-09-24T08:15:18.605Z,724
2016-09-24T08:16:18.658Z,772
2016-09-24T08:17:18.647Z,876
2016-09-24T08:18:18.671Z,992
2016-09-24T08:19:18.701Z,1096
2016-09-24T08:20:18.720Z,1144
2016-09-24T08:21:18.735Z,940
2016-09-24T08:22:18.764Z,864
2016-09-24T08:23:18.789Z,872
2016-09-24T08:24:18.796Z,852
2016-09-24T08:25:18.831Z,856
2016-09-24T08:26:18.858Z,844
2016-09-24T08:27:18.859Z,820
2016-09-24T08:28:18.917Z,788
2016-09-24T08:29:18.915Z,724
2016-09-24T08:30:18.937Z,692
2016-09-24T08:31:18.956Z,672
2016-09-24T08:32:18.976Z,668
2016-09-24T08:33:19.144Z,672
2016-09-24T08:34:19.029Z,680
2016-09-24T08:35:19.049Z,684
2016-09-24T08:36:19.063Z,680
2016-09-24T08:37:19.083Z,676
2016-09-24T08:38:19.107Z,680
2016-09-24T08:39:19.144Z,680
2016-09-24T08:40:19.466Z,692
2016-09-24T08:41:19.173Z,696
2016-09-24T08:42:19.195Z,704
2016-09-24T08:43:19.216Z,716
2016-09-24T08:44:19.228Z,724
2016-09-24T08:45:19.262Z,736
2016-09-24T08:46:19.302Z,744
2016-09-24T08:47:19.305Z,752
2016-09-24T08:48:19.332Z,748
2016-09-24T08:49:19.355Z,748
2016-09-24T08:50:19.373Z,748
2016-09-24T08:51:19.518Z,748
2016-09-24T08:52:19.414Z,748
2016-09-24T08:53:19.436Z,756
2016-09-24T08:54:19.454Z,764
2016-09-24T08:55:19.506Z,772
2016-09-24T08:56:19.502Z,768
2016-09-24T08:57:19.514Z,772
2016-09-24T08:58:19.551Z,764
2016-09-24T08:59:19.571Z,760
2016-09-24T09:00:19.590Z,756
2016-09-24T09:01:19.598Z,764
2016-09-24T09:02:19.942Z,768
2016-09-24T09:03:19.655Z,780
2016-09-24T09:04:19.679Z,784
2016-09-24T09:05:19.707Z,788
2016-09-24T09:06:19.725Z,788
2016-09-24T09:07:19.770Z,792
2016-09-24T09:08:19.778Z,796
2016-09-24T09:09:19.787Z,800
2016-09-24T09:10:19.827Z,800
2016-09-24T09:11:19.840Z,800
2016-09-24T09:12:19.884Z,800
2016-09-24T09:13:19.884Z,804
2016-09-24T09:14:20.212Z,804
2016-09-24T09:15:19.927Z,808
2016-09-24T09:16:20.055Z,812
2016-09-24T09:17:19.986Z,820
2016-09-24T09:18:20.007Z,836
2016-09-24T09:19:20.015Z,848
2016-09-24T09:20:20.086Z,856
2016-09-24T09:21:20.205Z,856
2016-09-24T09:22:20.106Z,852
2016-09-24T09:23:20.114Z,844
2016-09-24T09:24:20.130Z,844
2016-09-24T09:25:20.170Z,852
2016-09-24T09:26:20.176Z,852
2016-09-24T09:27:20.205Z,864
2016-09-24T09:28:20.228Z,880
2016-09-24T09:29:20.241Z,892
2016-09-24T09:30:20.271Z,904
2016-09-24T09:31:20.287Z,932
2016-09-24T09:32:20.334Z,956
2016-09-24T09:33:20.335Z,980
2016-09-24T09:34:20.363Z,980
2016-09-24T09:35:20.399Z,956
2016-09-24T09:36:20.417Z,952
2016-09-24T09:37:20.432Z,932
2016-09-24T09:38:20.467Z,920
2016-09-24T09:39:20.484Z,920
2016-09-24T09:40:20.611Z,932
2016-09-24T09:41:20.628Z,940
2016-09-24T09:42:20.641Z,940
2016-09-24T09:43:20.687Z,940
2016-09-24T09:44:20.688Z,932
2016-09-24T09:45:20.628Z,932
2016-09-24T09:46:20.636Z,924
2016-09-24T09:47:20.670Z,936
2016-09-24T09:48:20.693Z,936
2016-09-24T09:49:20.702Z,944
2016-09-24T09:50:20.732Z,952
2016-09-24T09:51:20.762Z,956
2016-09-24T09:52:20.778Z,968
2016-09-24T09:53:20.815Z,984
2016-09-24T09:54:20.832Z,988
2016-09-24T09:55:20.864Z,988
2016-09-24T09:56:20.876Z,992
2016-09-24T09:57:20.898Z,1000
2016-09-24T09:58:20.932Z,1008
2016-09-24T09:59:20.957Z,1012
2016-09-24T10:00:20.973Z,1020
2016-09-24T10:01:21.003Z,1028
2016-09-24T10:02:21.029Z,1036
2016-09-24T10:03:21.179Z,1040
2016-09-24T10:04:21.304Z,1044
2016-09-24T10:05:21.109Z,1048
2016-09-24T10:06:21.112Z,1052
2016-09-24T10:07:21.138Z,1056
2016-09-24T10:08:21.161Z,1056
2016-09-24T10:09:21.185Z,1056
2016-09-24T10:10:21.215Z,1052
2016-09-24T10:11:21.236Z,1060
2016-09-24T10:12:21.251Z,1076
2016-09-24T10:13:21.281Z,1088
2016-09-24T10:14:21.309Z,1096
2016-09-24T10:15:21.334Z,1108
2016-09-24T10:16:21.351Z,1124
2016-09-24T10:17:21.389Z,1132
2016-09-24T10:18:21.404Z,1144
2016-09-24T10:19:21.441Z,1156
2016-09-24T10:20:21.457Z,1160
2016-09-24T10:21:21.491Z,1168
2016-09-24T10:22:21.505Z,1180
2016-09-24T10:23:21.523Z,1184
2016-09-24T10:24:21.556Z,1192
2016-09-24T10:25:21.581Z,1188
2016-09-24T10:26:21.605Z,1200
2016-09-24T10:27:21.943Z,1208
2016-09-24T10:28:21.644Z,1208
2016-09-24T10:29:21.690Z,1208
2016-09-24T10:30:21.701Z,1208
2016-09-24T10:31:21.721Z,1224
2016-09-24T10:32:21.758Z,1236
2016-09-24T10:33:21.784Z,1232
2016-09-24T10:34:21.810Z,1220
2016-09-24T10:35:21.825Z,1220
2016-09-24T10:36:21.856Z,1224
2016-09-24T10:37:21.937Z,1236
2016-09-24T10:38:21.962Z,1256
2016-09-24T10:39:21.949Z,1264
2016-09-24T10:40:21.972Z,1284
2016-09-24T10:41:22.014Z,1284
2016-09-24T10:42:22.029Z,1288
2016-09-24T10:43:22.030Z,1288
2016-09-24T10:44:22.047Z,1284
2016-09-24T10:45:22.083Z,1280
2016-09-24T10:46:22.278Z,1268
2016-09-24T10:47:22.132Z,1264
2016-09-24T10:48:22.169Z,1272
2016-09-24T10:49:22.180Z,1280
2016-09-24T10:50:22.197Z,1292
2016-09-24T10:51:22.240Z,1308
2016-09-24T10:52:22.252Z,1316
2016-09-24T10:53:22.278Z,1336
2016-09-24T10:54:22.304Z,1364
2016-09-24T10:55:22.332Z,1376
2016-09-24T10:56:22.358Z,1416
2016-09-24T10:57:22.374Z,1516
2016-09-24T10:58:22.401Z,1604
2016-09-24T10:59:22.450Z,1720
2016-09-24T11:00:22.451Z,1844
2016-09-24T11:01:22.475Z,1876
2016-09-24T11:02:22.508Z,1872
2016-09-24T11:03:22.539Z,1688
2016-09-24T11:04:22.556Z,1532
2016-09-24T11:05:22.581Z,1548
2016-09-24T11:06:22.602Z,1572
2016-09-24T11:07:22.625Z,1528
2016-09-24T11:08:22.666Z,1500
2016-09-24T11:09:22.686Z,1488
2016-09-24T11:10:22.725Z,1488
2016-09-24T11:11:22.729Z,1472
2016-09-24T11:12:22.763Z,1476
2016-09-24T11:13:22.793Z,1484
2016-09-24T11:14:22.814Z,1488
2016-09-24T11:15:22.846Z,1492
2016-09-24T11:16:22.869Z,1500
2016-09-24T11:17:22.893Z,1492
2016-09-24T11:18:22.924Z,1484
2016-09-24T11:19:22.942Z,1476
2016-09-24T11:20:22.961Z,1492
2016-09-24T11:21:22.992Z,1572
2016-09-24T11:22:23.026Z,1692
2016-09-24T11:23:23.053Z,1792
2016-09-24T11:24:23.082Z,1852
2016-09-24T11:25:23.097Z,1936
2016-09-24T11:26:23.136Z,1892
2016-09-24T11:27:23.157Z,1984
2016-09-24T11:28:23.185Z,2168
2016-09-24T11:29:23.221Z,2164
2016-09-24T11:30:23.242Z,2088
2016-09-24T11:31:23.261Z,1736
2016-09-24T11:32:23.289Z,1572
2016-09-24T11:33:23.319Z,1500
2016-09-24T11:34:23.337Z,1416
2016-09-24T11:35:23.359Z,1564
2016-09-24T11:36:23.398Z,1584
2016-09-24T11:37:23.418Z,1592
2016-09-24T11:38:23.436Z,1616
2016-09-24T11:39:23.471Z,1636
2016-09-24T11:40:23.508Z,1656
2016-09-24T11:41:23.639Z,1604
2016-09-24T11:42:23.635Z,1608
2016-09-24T11:43:23.664Z,1620
2016-09-24T11:44:23.823Z,1644
2016-09-24T11:45:23.843Z,1636
2016-09-24T11:46:23.842Z,1636
2016-09-24T11:47:23.859Z,1656
2016-09-24T11:48:23.873Z,1680
2016-09-24T11:49:23.877Z,1724
2016-09-24T11:50:23.892Z,1744
2016-09-24T11:51:23.937Z,1792
2016-09-24T11:52:23.940Z,1972
2016-09-24T11:53:23.937Z,2156
2016-09-24T11:54:23.989Z,2056
2016-09-24T11:55:23.993Z,2052
2016-09-24T11:56:24.010Z,2224
2016-09-24T11:57:24.037Z,2252
2016-09-24T11:58:24.032Z,2192
2016-09-24T11:59:24.039Z,2308
2016-09-24T12:00:24.061Z,2428
2016-09-24T12:01:24.074Z,2480
2016-09-24T12:02:24.104Z,2260
2016-09-24T12:03:24.123Z,2112
2016-09-24T12:04:24.149Z,1944
2016-09-24T12:05:24.191Z,1708
2016-09-24T12:06:24.207Z,1584
2016-09-24T12:07:24.240Z,1516
2016-09-24T12:08:24.254Z,1620
2016-09-24T12:09:24.294Z,2188
2016-09-24T12:10:24.321Z,2632
2016-09-24T12:11:24.674Z,2500
2016-09-24T12:12:24.377Z,2272
2016-09-24T12:13:24.405Z,1812
2016-09-24T12:14:24.437Z,1736
2016-09-24T12:15:24.465Z,1904
2016-09-24T12:16:24.486Z,2148
2016-09-24T12:17:24.512Z,2276
2016-09-24T12:18:24.539Z,2232
2016-09-24T12:19:24.578Z,2168
2016-09-24T12:20:24.601Z,2228
2016-09-24T12:21:24.628Z,2204
2016-09-24T12:22:24.671Z,1912
2016-09-24T12:23:24.692Z,1520
2016-09-24T12:24:24.705Z,1396
2016-09-24T12:25:24.740Z,1268
2016-09-24T12:26:24.783Z,1304
2016-09-24T12:27:24.796Z,1504
2016-09-24T12:28:24.815Z,1492
2016-09-24T12:29:24.862Z,1408
2016-09-24T12:30:24.870Z,1276
2016-09-24T12:31:24.924Z,1164
2016-09-24T12:32:24.955Z,1088
2016-09-24T12:33:24.960Z,1068
2016-09-24T12:34:24.986Z,1124
2016-09-24T12:35:25.026Z,1240
2016-09-24T12:36:25.040Z,1256
2016-09-24T12:37:25.096Z,1224
2016-09-24T12:38:25.091Z,1172
2016-09-24T12:39:25.131Z,1100
2016-09-24T12:40:25.158Z,1152
2016-09-24T12:41:25.184Z,1296
2016-09-24T12:42:25.211Z,1336
2016-09-24T12:43:25.243Z,1372
2016-09-24T12:44:25.277Z,1408
2016-09-24T12:45:25.302Z,1372
2016-09-24T12:46:25.335Z,1316
2016-09-24T12:47:25.359Z,1312
2016-09-24T12:48:25.390Z,1352
2016-09-24T12:49:25.415Z,1296
2016-09-24T12:50:25.455Z,1200
2016-09-24T12:51:25.471Z,1256
2016-09-24T12:52:25.496Z,1340
2016-09-24T12:53:25.529Z,1404
2016-09-24T12:54:25.565Z,1472
2016-09-24T12:55:25.593Z,1484
2016-09-24T12:56:25.610Z,1516
2016-09-24T12:57:25.636Z,1524
2016-09-24T12:58:25.679Z,1524
2016-09-24T12:59:25.714Z,1504
2016-09-24T13:00:25.723Z,1488
2016-09-24T13:01:25.750Z,1492
2016-09-24T13:02:25.793Z,1480
2016-09-24T13:03:25.812Z,1468
2016-09-24T13:04:25.844Z,1432
2016-09-24T13:05:25.871Z,1408
2016-09-24T13:06:25.886Z,1408
2016-09-24T13:07:25.946Z,1408
2016-09-24T13:08:25.942Z,1388
2016-09-24T13:09:25.984Z,1376
2016-09-24T13:10:26.016Z,1364
2016-09-24T13:11:26.035Z,1348
2016-09-24T13:12:26.073Z,1344
2016-09-24T13:13:26.090Z,1348
2016-09-24T13:14:26.143Z,1360
2016-09-24T13:15:26.150Z,1376
2016-09-24T13:16:26.179Z,1380
2016-09-24T13:17:26.203Z,1380
2016-09-24T13:18:26.236Z,1372
2016-09-24T13:19:26.263Z,1352
2016-09-24T13:20:26.305Z,1360
2016-09-24T13:21:26.319Z,1356
2016-09-24T13:22:26.364Z,1340
2016-09-24T13:23:26.382Z,1340
2016-09-24T13:24:26.415Z,1352
2016-09-24T13:25:26.436Z,1404
2016-09-24T13:26:26.473Z,1472
2016-09-24T13:27:26.489Z,1504
2016-09-24T13:28:26.517Z,1460
2016-09-24T13:29:26.557Z,1400
2016-09-24T13:30:26.578Z,1352
2016-09-24T13:31:26.612Z,1340
2016-09-24T13:32:26.645Z,1296
2016-09-24T13:33:26.676Z,1292
2016-09-24T13:34:26.692Z,1284
2016-09-24T13:35:26.716Z,1304
2016-09-24T13:36:26.745Z,1304
2016-09-24T13:37:26.780Z,1316
2016-09-24T13:38:26.802Z,1320
2016-09-24T13:39:26.823Z,1324
2016-09-24T13:40:26.864Z,1288
2016-09-24T13:41:26.884Z,1216
2016-09-24T13:42:26.917Z,1092
2016-09-24T13:43:26.945Z,1016
2016-09-24T13:44:26.987Z,1032
2016-09-24T13:45:27.003Z,984
2016-09-24T13:46:27.028Z,956
2016-09-24T13:47:27.058Z,908
2016-09-24T13:48:27.090Z,912
2016-09-24T13:49:27.122Z,952
2016-09-24T13:50:27.159Z,1016
2016-09-24T13:51:27.177Z,1076
2016-09-24T13:52:27.224Z,1184
2016-09-24T13:53:27.240Z,1252
2016-09-24T13:54:27.267Z,1160
2016-09-24T13:55:27.306Z,1036
2016-09-24T13:56:27.328Z,1044
2016-09-24T13:57:27.358Z,1056
2016-09-24T13:58:27.385Z,1044
2016-09-24T13:59:27.411Z,1024